Time;durP1;ratioP1;P1;durP2;ratioP2;P2;SDS_P1;SDS_P2;PMS_P1;PMS_P2;Temp;Humidity;BMP_temperature;BMP_pressure;BME280_temperature;BME280_humidity;BME280_pressure;Samples;Min_cycle;Max_cycle;Signal;HPM_P1;HPM_P2
2022/12/14 05:12:14;;;;;;;71.70;26.33;;;;;;;-4.13;100.00;99961.91;5562693;32;301486;-87
2022/12/14 05:15:22;;;;;;;60.88;23.90;;;;;;;-4.14;100.00;99967.06;5551838;32;33689;-87
2022/12/14 05:18:25;;;;;;;64.82;24.70;;;;;;;-4.12;100.00;99983.50;5547084;32;34093;-87
2022/12/14 05:21:46;;;;;;;54.95;22.48;;;;;;;-4.03;100.00;99980.09;5546706;32;34667;-87
2022/12/14 05:24:49;;;;;;;58.72;23.25;;;;;;;-4.01;100.00;99996.50;5547925;32;33807;-87
2022/12/14 05:27:51;;;;;;;51.92;22.02;;;;;;;-3.98;100.00;99974.03;5548050;32;32809;-87
2022/12/14 05:30:54;;;;;;;51.63;22.67;;;;;;;-3.92;100.00;99973.22;5547079;32;32909;-87
2022/12/14 05:33:57;;;;;;;54.80;22.87;;;;;;;-3.88;100.00;99968.91;5545780;32;32360;-87
2022/12/14 05:36:59;;;;;;;56.33;23.73;;;;;;;-3.87;100.00;99948.16;5546518;32;34489;-87
2022/12/14 05:40:04;;;;;;;47.88;21.75;;;;;;;-3.74;100.00;99946.47;5546780;32;33795;-87
2022/12/14 05:43:10;;;;;;;51.70;22.83;;;;;;;-3.73;100.00;99957.72;5548096;32;34591;-87
2022/12/14 05:46:13;;;;;;;49.03;21.70;;;;;;;-3.82;100.00;99964.59;5546644;32;35109;-87
2022/12/14 05:49:15;;;;;;;40.22;19.65;;;;;;;-3.81;100.00;99973.25;5548140;32;34927;-87
2022/12/14 05:52:19;;;;;;;46.88;21.20;;;;;;;-3.73;100.00;99962.91;5547715;32;34902;-87
2022/12/14 05:55:21;;;;;;;39.78;19.40;;;;;;;-3.74;100.00;99961.16;5548422;32;34305;-86
2022/12/14 05:58:24;;;;;;;42.70;20.77;;;;;;;-3.72;100.00;99965.47;5551839;32;34269;-86
2022/12/14 06:01:27;;;;;;;44.45;20.90;;;;;;;-3.82;100.00;99955.97;5550171;32;34020;-86
2022/12/14 06:04:30;;;;;;;41.30;19.90;;;;;;;-3.59;100.00;99944.75;5558890;32;33531;-86
2022/12/14 06:07:32;;;;;;;41.05;19.15;;;;;;;-3.74;100.00;99948.19;5548483;32;35171;-86
2022/12/14 06:10:35;;;;;;;42.13;19.83;;;;;;;-3.76;100.00;99937.84;5548348;32;34120;-86
2022/12/14 06:13:39;;;;;;;36.63;18.23;;;;;;;-3.86;100.00;99924.00;5546700;32;32575;-86
2022/12/14 06:16:44;;;;;;;39.45;19.02;;;;;;;-3.71;100.00;99922.28;5545611;32;32765;-87
2022/12/14 06:19:46;;;;;;;38.95;18.77;;;;;;;-3.65;100.00;99930.06;5549751;32;35149;-86
2022/12/14 06:22:53;;;;;;;36.55;17.95;;;;;;;-3.72;100.00;99924.00;5549044;32;35230;-86
2022/12/14 06:25:56;;;;;;;35.55;17.30;;;;;;;-3.74;100.00;99928.31;5547096;32;34934;-86
2022/12/14 06:28:59;;;;;;;37.67;18.85;;;;;;;-3.59;100.00;99930.06;5531596;32;33745;-86
2022/12/14 06:32:01;;;;;;;36.70;17.45;;;;;;;-3.48;100.00;99934.41;5535508;32;34480;-86
2022/12/14 06:35:05;;;;;;;32.88;16.20;;;;;;;-3.67;100.00;99937.84;5534734;32;35276;-86
2022/12/14 06:38:07;;;;;;;35.92;18.10;;;;;;;-3.63;100.00;99930.09;5536465;32;33891;-85
2022/12/14 06:41:10;;;;;;;34.15;16.58;;;;;;;-3.64;100.00;99929.19;5533220;32;35208;-85
2022/12/14 06:44:14;;;;;;;37.38;18.52;;;;;;;-3.71;100.00;99928.34;5530171;32;34420;-86
2022/12/14 06:47:17;;;;;;;37.88;17.40;;;;;;;-3.66;100.00;99918.81;5536900;32;32840;-86
2022/12/14 06:50:20;;;;;;;37.67;17.85;;;;;;;-3.61;100.00;99921.44;5558625;31;34332;-85
2022/12/14 06:53:23;;;;;;;35.53;17.50;;;;;;;-3.66;100.00;99916.22;5551848;32;33737;-85
2022/12/14 06:56:27;;;;;;;32.35;16.75;;;;;;;-3.60;100.00;99911.91;5557966;32;35095;-86
2022/12/14 06:59:29;;;;;;;38.08;17.12;;;;;;;-3.55;100.00;99899.81;5537879;32;32953;-86
2022/12/14 07:02:32;;;;;;;35.47;17.50;;;;;;;-3.50;100.00;99903.28;5541324;32;32885;-86
2022/12/14 07:05:58;;;;;;;33.10;16.00;;;;;;;-3.50;100.00;99912.78;5549017;32;34803;-86
2022/12/14 07:09:03;;;;;;;35.17;16.67;;;;;;;-3.34;100.00;99909.34;5537312;32;34967;-87
2022/12/14 07:12:06;;;;;;;36.30;18.23;;;;;;;-3.50;100.00;99910.19;5531142;32;33019;-85
2022/12/14 07:15:09;;;;;;;35.83;17.73;;;;;;;-3.41;100.00;99912.81;5555311;32;33953;-86
2022/12/14 07:18:12;;;;;;;38.90;17.27;;;;;;;-3.39;100.00;99896.38;5539924;32;32840;-87
2022/12/14 07:21:16;;;;;;;32.35;16.52;;;;;;;-3.24;100.00;99881.66;5552221;32;34757;-87
2022/12/14 07:24:19;;;;;;;33.15;17.15;;;;;;;-3.34;100.00;99878.22;5559337;32;33780;-87
2022/12/14 07:27:23;;;;;;;36.42;16.73;;;;;;;-3.44;100.00;99881.66;5560060;32;33936;-86
2022/12/14 07:30:26;;;;;;;34.85;16.60;;;;;;;-3.43;100.00;99888.56;5536956;32;33181;-87
2022/12/14 07:33:29;;;;;;;36.33;17.77;;;;;;;-3.35;100.00;99891.19;5555345;31;31498;-87
2022/12/14 07:36:33;;;;;;;38.28;18.23;;;;;;;-3.39;100.00;99901.56;5582171;32;33899;-88
2022/12/14 07:39:35;;;;;;;36.90;17.00;;;;;;;-3.32;100.00;99893.78;5553358;32;32458;-88
2022/12/14 07:42:40;;;;;;;33.08;16.73;;;;;;;-3.25;100.00;99882.53;5553137;32;33917;-87
2022/12/14 07:45:44;;;;;;;35.80;17.23;;;;;;;-3.28;100.00;99893.78;5553916;32;33955;-88
2022/12/14 07:48:50;;;;;;;38.85;17.98;;;;;;;-3.18;100.00;99909.34;5536013;32;33093;-89
2022/12/14 07:51:52;;;;;;;37.13;17.35;;;;;;;-3.15;100.00;99911.91;5550860;32;34534;-90
2022/12/14 07:54:55;;;;;;;33.25;15.18;;;;;;;-3.27;100.00;99928.38;5552577;32;33456;-89
2022/12/14 07:57:58;;;;;;;35.58;16.90;;;;;;;-3.20;100.00;99929.22;5537787;32;33352;-89
2022/12/14 08:01:34;;;;;;;37.55;17.15;;;;;;;-3.22;100.00;99920.59;5539906;32;32124;-90
2022/12/14 08:04:37;;;;;;;34.05;17.20;;;;;;;-3.17;100.00;99917.09;5506184;32;33642;-88
2022/12/14 08:07:40;;;;;;;38.28;16.62;;;;;;;-3.01;100.00;99915.34;5546778;32;34025;-88
2022/12/14 08:10:47;;;;;;;45.80;17.15;;;;;;;-3.05;100.00;99905.00;5567704;32;34145;-87
2022/12/14 08:14:01;;;;;;;30.65;15.57;;;;;;;-2.96;100.00;99923.16;5551511;32;33876;-87
2022/12/14 08:17:04;;;;;;;37.67;16.23;;;;;;;-2.94;100.00;99912.75;5539223;32;32828;-88
2022/12/14 08:20:07;;;;;;;31.92;15.45;;;;;;;-2.97;100.00;99916.22;5543893;32;34470;-88
2022/12/14 08:23:10;;;;;;;36.58;15.98;;;;;;;-3.00;100.00;99919.72;5535445;32;32602;-89
2022/12/14 08:26:13;;;;;;;33.70;16.00;;;;;;;-2.93;100.00;99902.37;5549803;32;33935;-88
2022/12/14 08:29:17;;;;;;;37.30;17.15;;;;;;;-2.86;100.00;99906.69;5553556;32;34037;-87
2022/12/14 08:32:20;;;;;;;32.28;16.05;;;;;;;-2.81;100.00;99908.41;5545485;32;34986;-91
2022/12/14 08:35:23;;;;;;;29.80;14.73;;;;;;;-2.69;100.00;99907.50;5540753;32;32979;-90
2022/12/14 08:38:25;;;;;;;28.15;14.13;;;;;;;-2.82;100.00;99919.66;5539659;32;33760;-92
2022/12/14 08:41:29;;;;;;;30.02;14.73;;;;;;;-2.67;100.00;99914.41;5556745;32;35745;-90
2022/12/14 08:44:31;;;;;;;29.73;14.63;;;;;;;-2.75;100.00;99917.06;5547869;32;34574;-88
2022/12/14 08:47:34;;;;;;;28.50;14.20;;;;;;;-2.60;100.00;99915.28;5539738;32;32594;-88
2022/12/14 08:50:37;;;;;;;34.08;15.10;;;;;;;-2.74;100.00;99903.22;5554284;32;33213;-88
2022/12/14 08:57:31;;;;;;;31.05;15.02;;;;;;;-2.78;100.00;99883.31;1281119;26;20274;-88
2022/12/14 09:00:42;;;;;;;33.00;15.73;;;;;;;-2.74;100.00;99861.66;5562297;26;30909;-88
2022/12/14 09:03:45;;;;;;;31.30;15.35;;;;;;;-2.66;100.00;99858.16;5505096;32;32372;-89
2022/12/14 09:06:48;;;;;;;32.42;15.95;;;;;;;-2.65;100.00;99855.56;5510863;32;35267;-87
2022/12/14 09:09:51;;;;;;;34.45;15.50;;;;;;;-2.73;100.00;99859.91;5507238;32;35149;-88
2022/12/14 09:12:54;;;;;;;60.72;16.75;;;;;;;-2.69;100.00;99868.56;5514594;32;34113;-88
2022/12/14 09:15:59;;;;;;;35.20;16.30;;;;;;;-2.86;100.00;99870.34;5514404;32;35214;-88
2022/12/14 09:19:02;;;;;;;30.35;14.73;;;;;;;-2.64;100.00;99870.28;5489372;32;33368;-88
2022/12/14 09:22:04;;;;;;;31.48;15.45;;;;;;;-2.65;100.00;99865.09;5505393;32;33690;-87
2022/12/14 09:25:08;;;;;;;33.92;15.80;;;;;;;-2.66;100.00;99865.97;5501180;32;33847;-88
2022/12/14 09:28:10;;;;;;;36.92;16.15;;;;;;;-2.60;100.00;99860.75;5493907;32;34072;-88
2022/12/14 09:31:16;;;;;;;32.53;15.85;;;;;;;-2.57;100.00;99864.19;5500319;32;33780;-89
2022/12/14 09:34:18;;;;;;;32.35;16.70;;;;;;;-2.62;100.00;99855.56;5482376;32;32510;-87
2022/12/14 09:37:21;;;;;;;34.53;15.77;;;;;;;-2.62;100.00;99852.09;5491654;32;33835;-89
2022/12/14 09:40:30;;;;;;;32.95;15.60;;;;;;;-2.51;100.00;99846.84;5483031;32;32221;-89
2022/12/14 09:43:38;;;;;;;29.65;14.55;;;;;;;-2.45;100.00;99836.44;5502896;32;33109;-89
2022/12/14 09:46:57;;;;;;;31.83;15.05;;;;;;;-2.45;100.00;99826.06;5478879;32;32182;-89
2022/12/14 09:50:16;;;;;;;36.33;16.45;;;;;;;-2.39;100.00;99825.13;5495339;32;33265;-88
2022/12/14 09:53:20;;;;;;;34.00;15.15;;;;;;;-2.26;100.00;99815.56;5496253;32;34452;-88
2022/12/14 09:56:23;;;;;;;28.35;14.52;;;;;;;-2.22;100.00;99817.28;5513849;32;33863;-89
2022/12/14 09:59:29;;;;;;;33.70;15.57;;;;;;;-2.09;100.00;99807.62;5531043;32;34477;-86
2022/12/14 10:03:18;;;;;;;31.75;15.57;;;;;;;-2.26;100.00;99805.16;5532335;32;32347;-88
2022/12/14 10:07:05;;;;;;;32.65;16.23;;;;;;;-2.38;100.00;99795.69;5499135;32;34221;-86
2022/12/14 10:10:23;;;;;;;35.22;15.88;;;;;;;-2.34;100.00;99803.47;5492262;32;33924;-88
2022/12/14 10:13:25;;;;;;;34.20;15.50;;;;;;;-2.24;100.00;99809.47;5506799;32;33820;-87
2022/12/14 10:16:40;;;;;;;35.88;15.65;;;;;;;-2.12;100.00;99802.47;5493216;32;33899;-86
2022/12/14 10:19:56;;;;;;;31.50;15.60;;;;;;;-1.99;100.00;99805.84;5507317;32;33589;-87
2022/12/14 10:23:01;;;;;;;29.85;14.82;;;;;;;-1.99;100.00;99814.50;5494892;32;33977;-91
2022/12/14 10:26:11;;;;;;;33.90;15.95;;;;;;;-2.10;100.00;99803.31;5493950;32;34286;-91
2022/12/14 10:29:20;;;;;;;31.80;15.63;;;;;;;-1.92;100.00;99789.31;5502220;32;34243;-88
2022/12/14 10:32:31;;;;;;;33.25;14.80;;;;;;;-1.90;100.00;99787.59;5514223;32;35051;-88
2022/12/14 10:35:49;;;;;;;36.75;15.30;;;;;;;-2.01;100.00;99782.44;5501943;32;33042;-88
2022/12/14 10:39:20;;;;;;;35.90;15.95;;;;;;;-2.04;100.00;99770.38;5502097;32;32650;-88
2022/12/14 10:42:57;;;;;;;33.00;15.02;;;;;;;-1.88;100.00;99756.38;5510696;32;34287;-88
2022/12/14 10:46:18;;;;;;;29.20;14.20;;;;;;;-1.84;100.00;99751.13;5498348;32;34437;-85
2022/12/14 10:49:35;;;;;;;32.30;14.75;;;;;;;-1.85;100.00;99748.53;5503628;32;34740;-84
2022/12/14 10:52:41;;;;;;;31.77;14.95;;;;;;;-1.82;100.00;99733.75;5510767;32;33978;-86
2022/12/14 10:55:45;;;;;;;32.67;16.33;;;;;;;-1.77;100.00;99742.37;5516723;32;32901;-87
2022/12/14 10:59:34;;;;;;;30.52;14.87;;;;;;;-1.89;100.00;99739.91;5513149;32;35165;-90
2022/12/14 11:02:53;;;;;;;29.35;14.80;;;;;;;-1.86;100.00;99741.63;5448219;32;32624;-85
2022/12/14 11:06:09;;;;;;;31.80;15.63;;;;;;;-1.94;100.00;99736.47;5459348;32;34750;-85
2022/12/14 11:09:20;;;;;;;32.35;15.43;;;;;;;-1.88;100.00;99735.56;5457468;32;33848;-84
2022/12/14 11:12:26;;;;;;;30.20;14.70;;;;;;;-1.96;100.00;99735.63;5453504;32;32616;-85
2022/12/14 11:15:39;;;;;;;30.45;15.23;;;;;;;-1.91;100.00;99739.06;5449241;32;33901;-85
2022/12/14 11:18:41;;;;;;;30.30;15.05;;;;;;;-1.90;100.00;99733.81;5450816;32;34042;-85
2022/12/14 11:21:45;;;;;;;30.15;14.85;;;;;;;-1.90;100.00;99727.78;5441197;32;34226;-84
2022/12/14 11:24:51;;;;;;;32.95;15.55;;;;;;;-1.84;100.00;99722.53;5444601;32;34302;-85
2022/12/14 11:27:54;;;;;;;31.73;15.57;;;;;;;-1.76;100.00;99720.72;5453637;32;33959;-87
2022/12/14 11:31:19;;;;;;;29.92;15.13;;;;;;;-1.88;100.00;99719.97;5448893;32;34501;-87
2022/12/14 11:34:41;;;;;;;31.27;15.40;;;;;;;-1.99;100.00;99699.25;5507119;32;33995;-89
2022/12/14 11:37:48;;;;;;;30.88;15.48;;;;;;;-1.94;100.00;99698.34;5516771;32;35537;-90
2022/12/14 11:40:51;;;;;;;32.50;14.80;;;;;;;-1.88;100.00;99688.78;5513271;32;34102;-89
2022/12/14 11:44:14;;;;;;;34.17;15.32;;;;;;;-1.82;100.00;99693.91;5532574;26;34187;-87
2022/12/14 11:47:28;;;;;;;34.67;15.77;;;;;;;-1.67;100.00;99687.66;5537842;32;33806;-88
2022/12/14 11:50:30;;;;;;;33.60;15.65;;;;;;;-1.61;100.00;99678.97;5538232;32;34543;-88
2022/12/14 11:53:33;;;;;;;33.33;15.20;;;;;;;-1.69;100.00;99673.84;5536754;32;34172;-86
2022/12/14 11:56:36;;;;;;;40.63;17.05;;;;;;;-1.70;100.00;99664.31;5557180;32;34778;-85
2022/12/14 11:59:47;;;;;;;33.50;16.50;;;;;;;-1.51;100.00;99659.78;5550928;32;34776;-86
2022/12/14 12:03:17;;;;;;;33.33;15.32;;;;;;;-1.43;100.00;99655.34;5552561;32;33811;-86
2022/12/14 12:06:24;;;;;;;32.08;15.98;;;;;;;-1.47;100.00;99655.41;5539739;32;33748;-85
2022/12/14 12:09:30;;;;;;;30.88;15.60;;;;;;;-1.79;100.00;99653.16;5541519;32;34218;-86
2022/12/14 12:12:33;;;;;;;30.55;15.55;;;;;;;-1.85;100.00;99654.94;5546513;32;34153;-86
2022/12/14 12:15:42;;;;;;;37.25;16.55;;;;;;;-1.79;100.00;99647.06;5546763;32;34258;-85
2022/12/14 12:19:07;;;;;;;31.67;15.27;;;;;;;-1.58;100.00;99643.37;5535586;32;33725;-87
2022/12/14 12:22:15;;;;;;;32.08;14.85;;;;;;;-1.75;100.00;99643.56;5542560;32;34103;-86
2022/12/14 12:25:19;;;;;;;35.58;16.27;;;;;;;-1.78;100.00;99633.19;5536587;32;34591;-87
2022/12/14 12:28:42;;;;;;;34.22;15.65;;;;;;;-1.81;100.00;99636.69;5536190;32;33897;-92
2022/12/14 12:32:00;;;;;;;29.20;14.70;;;;;;;-1.82;100.00;99627.16;5533888;32;33990;-87
2022/12/14 12:35:17;;;;;;;35.47;16.67;;;;;;;-1.82;100.00;99614.16;5529697;32;33034;-85
2022/12/14 12:38:46;;;;;;;33.58;16.23;;;;;;;-1.74;100.00;99603.69;5562349;32;34095;-86
2022/12/14 12:42:07;;;;;;;33.22;15.85;;;;;;;-1.63;100.00;99594.00;5534222;32;34725;-86
2022/12/14 12:45:28;;;;;;;38.42;17.65;;;;;;;-1.62;100.00;99592.25;5542880;32;34171;-86
2022/12/14 12:48:45;;;;;;;36.47;17.35;;;;;;;-1.60;100.00;99592.25;5531850;32;34215;-87
2022/12/14 12:51:53;;;;;;;31.90;16.23;;;;;;;-1.66;100.00;99588.00;5539900;32;33881;-86
2022/12/14 12:55:18;;;;;;;30.98;15.65;;;;;;;-1.58;100.00;99591.34;5537049;32;34453;-86
2022/12/14 12:58:31;;;;;;;37.67;16.62;;;;;;;-1.70;100.00;99586.28;5539833;32;33591;-90
2022/12/14 13:01:39;;;;;;;35.22;16.12;;;;;;;-1.80;100.00;99576.00;5549520;32;34109;-87
2022/12/14 13:04:45;;;;;;;34.78;16.35;;;;;;;-1.73;100.00;99581.13;5538323;32;34384;-87
2022/12/14 13:07:57;;;;;;;33.38;15.88;;;;;;;-1.69;100.00;99569.81;5562135;32;34442;-87
2022/12/14 13:11:13;;;;;;;35.67;16.23;;;;;;;-1.70;100.00;99571.56;5533589;32;33986;-86
2022/12/14 13:14:44;;;;;;;36.97;15.80;;;;;;;-1.63;100.00;99572.34;5529467;32;32526;-87
2022/12/14 13:18:13;;;;;;;33.53;16.58;;;;;;;-1.69;100.00;99560.28;5531116;32;32153;-87
2022/12/14 13:21:43;;;;;;;31.77;15.25;;;;;;;-1.49;100.00;99575.59;5553819;32;33440;-87
2022/12/14 13:24:52;;;;;;;33.70;16.37;;;;;;;-1.46;100.00;99569.50;5535251;32;32883;-87
2022/12/14 13:28:22;;;;;;;37.25;16.77;;;;;;;-1.51;100.00;99564.38;5541371;32;34250;-87
2022/12/14 13:31:44;;;;;;;34.22;15.93;;;;;;;-1.61;100.00;99551.50;5532829;32;34272;-92
2022/12/14 13:34:57;;;;;;;33.40;16.15;;;;;;;-1.59;100.00;99548.00;5540933;32;33779;-87
2022/12/14 13:38:18;;;;;;;33.90;16.12;;;;;;;-1.60;100.00;99545.44;5522498;32;34061;-87
2022/12/14 13:41:43;;;;;;;37.65;17.02;;;;;;;-1.58;100.00;99541.06;5535705;32;35315;-87
2022/12/14 13:45:01;;;;;;;31.92;16.30;;;;;;;-1.56;100.00;99537.56;5548011;32;33766;-87
2022/12/14 13:48:17;;;;;;;36.58;16.45;;;;;;;-1.60;100.00;99541.09;5539608;32;34125;-87
2022/12/14 13:51:30;;;;;;;35.70;17.27;;;;;;;-1.68;100.00;99530.78;5528723;32;32807;-86
2022/12/14 13:54:36;;;;;;;35.33;16.73;;;;;;;-1.65;100.00;99525.53;5529893;32;32324;-87
2022/12/14 13:57:39;;;;;;;33.47;16.05;;;;;;;-1.73;100.00;99518.69;5532115;32;32233;-86
2022/12/14 14:00:45;;;;;;;32.55;16.17;;;;;;;-1.59;100.00;99516.81;5532916;32;33915;-87
2022/12/14 14:03:52;;;;;;;37.95;15.63;;;;;;;-1.70;100.00;99506.56;5544035;32;34621;-87
2022/12/14 14:07:17;;;;;;;33.85;17.33;;;;;;;-1.57;100.00;99504.63;5540351;32;36341;-87
2022/12/14 14:10:37;;;;;;;33.20;15.77;;;;;;;-1.65;100.00;99496.91;5543562;32;34587;-88
2022/12/14 14:13:41;;;;;;;32.67;16.10;;;;;;;-1.64;100.00;99497.78;5546567;32;33974;-88
2022/12/14 14:16:55;;;;;;;33.20;16.05;;;;;;;-1.74;100.00;99502.25;5536726;32;34193;-88
2022/12/14 14:19:58;;;;;;;36.78;16.58;;;;;;;-1.77;100.00;99508.34;5528041;32;32308;-88
2022/12/14 14:23:14;;;;;;;34.97;16.50;;;;;;;-1.91;100.00;99505.09;5538351;32;34605;-88
2022/12/14 14:26:36;;;;;;;30.70;15.45;;;;;;;-1.70;100.00;99508.28;5533607;32;32700;-89
2022/12/14 14:29:50;;;;;;;37.78;17.65;;;;;;;-1.93;100.00;99488.63;5558569;32;34072;-87
2022/12/14 14:32:54;;;;;;;34.75;17.30;;;;;;;-1.99;100.00;99489.56;5534995;32;33716;-88
2022/12/14 14:36:35;;;;;;;33.47;16.70;;;;;;;-1.90;100.00;99480.81;5544525;32;34209;-88
2022/12/14 14:39:39;;;;;;;38.85;17.58;;;;;;;-1.96;100.00;99475.69;5545849;32;33920;-87
2022/12/14 14:43:16;;;;;;;36.50;17.42;;;;;;;-1.94;100.00;99464.38;5544385;32;33985;-91
2022/12/14 14:46:20;;;;;;;35.20;17.02;;;;;;;-1.87;100.00;99474.72;5552112;32;32951;-87
2022/12/14 14:49:39;;;;;;;34.47;17.23;;;;;;;-2.10;100.00;99473.25;5535209;32;32801;-87
2022/12/14 14:52:41;;;;;;;33.15;16.75;;;;;;;-2.18;100.00;99475.94;5562512;32;34793;-87
2022/12/14 14:56:00;;;;;;;37.67;18.02;;;;;;;-2.08;100.00;99477.56;5586048;26;34690;-87
2022/12/14 14:59:18;;;;;;;34.65;16.62;;;;;;;-2.06;100.00;99480.97;5572151;32;34041;-87
2022/12/14 15:02:30;;;;;;;33.15;16.25;;;;;;;-2.21;100.00;99484.63;5549723;32;33367;-87
2022/12/14 15:05:35;;;;;;;36.58;17.37;;;;;;;-2.15;100.00;99480.25;5564461;32;33727;-87
2022/12/14 15:08:51;;;;;;;35.78;16.45;;;;;;;-2.15;100.00;99475.91;5557659;32;33859;-87
2022/12/14 15:12:00;;;;;;;33.50;16.83;;;;;;;-2.21;100.00;99479.44;5561986;32;34687;-87
2022/12/14 15:15:20;;;;;;;36.10;17.35;;;;;;;-2.19;100.00;99488.09;5561550;32;33579;-88
2022/12/14 15:18:24;;;;;;;37.72;18.52;;;;;;;-2.14;100.00;99479.34;5561194;32;34592;-88
2022/12/14 15:21:31;;;;;;;40.55;18.45;;;;;;;-2.21;100.00;99481.19;5560168;32;35004;-88
2022/12/14 15:24:38;;;;;;;40.95;19.10;;;;;;;-2.15;100.00;99475.91;5578827;31;33814;-87
2022/12/14 15:27:41;;;;;;;36.45;17.87;;;;;;;-2.06;100.00;99468.00;5577749;31;33902;-88
2022/12/14 15:30:47;;;;;;;38.95;19.27;;;;;;;-2.22;100.00;99459.53;5571623;31;35361;-87
2022/12/14 15:33:50;;;;;;;40.17;19.50;;;;;;;-2.21;100.00;99463.84;5541788;32;32736;-92
2022/12/14 15:36:53;;;;;;;42.30;19.48;;;;;;;-2.18;100.00;99460.34;5573849;32;33953;-91
2022/12/14 15:40:03;;;;;;;40.42;19.73;;;;;;;-2.21;100.00;99457.78;5571182;32;34152;-91
2022/12/14 15:43:17;;;;;;;39.67;18.62;;;;;;;-2.30;100.00;99462.19;5577858;32;33923;-88
2022/12/14 15:46:32;;;;;;;39.67;19.00;;;;;;;-2.17;100.00;99470.72;5547334;32;32625;-88
2022/12/14 15:49:35;;;;;;;37.30;18.65;;;;;;;-2.02;100.00;99463.59;5559467;32;34255;-88
2022/12/14 15:52:38;;;;;;;43.40;20.70;;;;;;;-2.18;100.00;99466.41;5554780;32;34349;-88
2022/12/14 15:55:41;;;;;;;42.60;20.65;;;;;;;-2.22;100.00;99469.06;5549175;32;34676;-87
2022/12/14 15:58:44;;;;;;;42.38;20.67;;;;;;;-2.24;100.00;99478.59;5543546;32;33637;-87
2022/12/14 16:01:52;;;;;;;40.55;18.85;;;;;;;-2.23;100.00;99473.41;5549628;32;33936;-88
2022/12/14 16:05:02;;;;;;;40.75;20.02;;;;;;;-2.20;100.00;99480.31;5549924;32;33380;-88
2022/12/14 16:08:08;;;;;;;38.60;19.90;;;;;;;-2.17;100.00;99470.72;5551056;32;34352;-88
2022/12/14 16:11:24;;;;;;;39.33;19.45;;;;;;;-2.26;100.00;99455.22;5552140;32;33814;-87
2022/12/14 16:14:32;;;;;;;42.92;21.05;;;;;;;-2.24;100.00;99447.44;5551402;32;34894;-88
2022/12/14 16:17:36;;;;;;;40.00;19.95;;;;;;;-2.26;100.00;99438.78;5550651;32;33314;-86
2022/12/14 16:20:42;;;;;;;38.45;20.62;;;;;;;-2.36;100.00;99432.84;5557563;32;34182;-87
2022/12/14 16:23:48;;;;;;;39.75;20.30;;;;;;;-2.24;100.00;99418.84;5564209;31;34507;-88
2022/12/14 16:26:58;;;;;;;39.45;19.00;;;;;;;-2.26;100.00;99424.06;5549910;32;32735;-88
2022/12/14 16:30:22;;;;;;;41.45;20.55;;;;;;;-2.28;100.00;99420.63;5572073;32;34017;-88
2022/12/14 16:33:24;;;;;;;40.53;20.23;;;;;;;-2.23;100.00;99408.44;5566104;32;33339;-88
2022/12/14 16:36:27;;;;;;;37.17;18.90;;;;;;;-2.23;100.00;99400.66;5572253;32;34618;-88
2022/12/14 16:39:37;;;;;;;40.00;20.12;;;;;;;-2.21;100.00;99382.44;5568870;32;34017;-88
2022/12/14 16:42:42;;;;;;;40.53;19.90;;;;;;;-2.29;100.00;99390.34;5570756;32;33678;-92
2022/12/14 16:46:06;;;;;;;40.35;19.98;;;;;;;-2.32;100.00;99390.34;5569965;32;34540;-90
2022/12/14 16:49:17;;;;;;;43.78;19.90;;;;;;;-2.37;100.00;99387.81;5569156;32;33811;-89
2022/12/14 16:52:25;;;;;;;43.65;19.75;;;;;;;-2.34;100.00;99386.94;5569086;32;33803;-88
2022/12/14 16:55:28;;;;;;;40.20;18.80;;;;;;;-2.40;100.00;99392.19;5568826;32;34294;-88
2022/12/14 16:58:31;;;;;;;39.00;19.27;;;;;;;-2.26;100.00;99387.69;5568677;32;34582;-88
2022/12/14 17:01:43;;;;;;;40.55;19.58;;;;;;;-2.17;100.00;99395.38;5571536;31;34026;-89
